sensor_id;sensor_type;location;lat;lon;timestamp;P1;durP1;ratioP1;P2;durP2;ratioP2
9801;SDS011;4940;50.900;4.672;2023-05-10T00:01:23;89.80;;;82.65;;
9801;SDS011;4940;50.900;4.672;2023-05-10T00:03:50;83.28;;;76.80;;
9801;SDS011;4940;50.900;4.672;2023-05-10T00:06:17;66.97;;;61.20;;
9801;SDS011;4940;50.900;4.672;2023-05-10T00:08:45;70.95;;;64.85;;
9801;SDS011;4940;50.900;4.672;2023-05-10T00:11:13;67.22;;;60.90;;
9801;SDS011;4940;50.900;4.672;2023-05-10T00:13:41;65.00;;;59.30;;
9801;SDS011;4940;50.900;4.672;2023-05-10T00:16:09;82.05;;;75.90;;
9801;SDS011;4940;50.900;4.672;2023-05-10T00:18:38;61.60;;;55.78;;
9801;SDS011;4940;50.900;4.672;2023-05-10T00:21:05;72.45;;;66.38;;
9801;SDS011;4940;50.900;4.672;2023-05-10T00:23:33;76.68;;;70.18;;
9801;SDS011;4940;50.900;4.672;2023-05-10T00:26:02;75.47;;;69.45;;
9801;SDS011;4940;50.900;4.672;2023-05-10T00:28:36;81.50;;;74.60;;
9801;SDS011;4940;50.900;4.672;2023-05-10T00:31:05;84.55;;;77.85;;
9801;SDS011;4940;50.900;4.672;2023-05-10T00:33:32;79.30;;;72.85;;
9801;SDS011;4940;50.900;4.672;2023-05-10T00:36:00;82.22;;;75.65;;
9801;SDS011;4940;50.900;4.672;2023-05-10T00:38:27;85.85;;;79.13;;
9801;SDS011;4940;50.900;4.672;2023-05-10T00:40:54;91.50;;;84.00;;
9801;SDS011;4940;50.900;4.672;2023-05-10T00:43:22;82.90;;;75.80;;
9801;SDS011;4940;50.900;4.672;2023-05-10T00:45:49;80.82;;;74.13;;
9801;SDS011;4940;50.900;4.672;2023-05-10T00:48:18;72.78;;;66.25;;
9801;SDS011;4940;50.900;4.672;2023-05-10T00:50:45;68.43;;;62.58;;
9801;SDS011;4940;50.900;4.672;2023-05-10T00:53:13;89.88;;;82.78;;
9801;SDS011;4940;50.900;4.672;2023-05-10T00:55:42;78.68;;;71.43;;
9801;SDS011;4940;50.900;4.672;2023-05-10T00:58:09;81.07;;;73.93;;
9801;SDS011;4940;50.900;4.672;2023-05-10T01:00:36;87.97;;;80.55;;
9801;SDS011;4940;50.900;4.672;2023-05-10T01:03:09;83.63;;;76.43;;
9801;SDS011;4940;50.900;4.672;2023-05-10T01:05:38;84.50;;;77.47;;
9801;SDS011;4940;50.900;4.672;2023-05-10T01:08:05;79.40;;;72.43;;
9801;SDS011;4940;50.900;4.672;2023-05-10T01:10:33;69.75;;;63.65;;
9801;SDS011;4940;50.900;4.672;2023-05-10T01:13:01;69.00;;;62.58;;
9801;SDS011;4940;50.900;4.672;2023-05-10T01:15:29;63.33;;;57.58;;
9801;SDS011;4940;50.900;4.672;2023-05-10T01:17:57;68.57;;;62.40;;
9801;SDS011;4940;50.900;4.672;2023-05-10T01:20:25;75.72;;;68.85;;
9801;SDS011;4940;50.900;4.672;2023-05-10T01:23:07;76.68;;;69.70;;
9801;SDS011;4940;50.900;4.672;2023-05-10T01:25:59;81.65;;;74.85;;
9801;SDS011;4940;50.900;4.672;2023-05-10T01:31:37;65.65;;;59.92;;
9801;SDS011;4940;50.900;4.672;2023-05-10T01:34:23;65.15;;;59.22;;
9801;SDS011;4940;50.900;4.672;2023-05-10T01:36:58;61.05;;;55.22;;
9801;SDS011;4940;50.900;4.672;2023-05-10T01:39:32;61.97;;;56.45;;
9801;SDS011;4940;50.900;4.672;2023-05-10T01:42:07;68.22;;;62.40;;
9801;SDS011;4940;50.900;4.672;2023-05-10T01:44:37;67.57;;;61.50;;
9801;SDS011;4940;50.900;4.672;2023-05-10T01:47:09;69.65;;;63.53;;
9801;SDS011;4940;50.900;4.672;2023-05-10T01:49:41;83.60;;;76.63;;
9801;SDS011;4940;50.900;4.672;2023-05-10T01:52:12;89.80;;;82.32;;
9801;SDS011;4940;50.900;4.672;2023-05-10T01:54:44;84.63;;;77.35;;
9801;SDS011;4940;50.900;4.672;2023-05-10T01:57:15;87.88;;;80.72;;
9801;SDS011;4940;50.900;4.672;2023-05-10T01:59:45;82.57;;;75.45;;
9801;SDS011;4940;50.900;4.672;2023-05-10T02:02:17;81.22;;;74.55;;
9801;SDS011;4940;50.900;4.672;2023-05-10T02:04:48;86.07;;;78.85;;
9801;SDS011;4940;50.900;4.672;2023-05-10T02:07:17;67.25;;;60.83;;
9801;SDS011;4940;50.900;4.672;2023-05-10T02:09:45;65.13;;;58.90;;
9801;SDS011;4940;50.900;4.672;2023-05-10T02:12:13;58.65;;;52.45;;
9801;SDS011;4940;50.900;4.672;2023-05-10T02:14:41;75.75;;;68.78;;
9801;SDS011;4940;50.900;4.672;2023-05-10T02:17:11;77.78;;;70.20;;
9801;SDS011;4940;50.900;4.672;2023-05-10T02:19:40;91.07;;;83.30;;
9801;SDS011;4940;50.900;4.672;2023-05-10T02:22:12;95.38;;;87.57;;
9801;SDS011;4940;50.900;4.672;2023-05-10T02:24:40;94.88;;;87.00;;
9801;SDS011;4940;50.900;4.672;2023-05-10T02:27:08;101.00;;;93.03;;
9801;SDS011;4940;50.900;4.672;2023-05-10T02:29:42;93.38;;;85.45;;
9801;SDS011;4940;50.900;4.672;2023-05-10T02:32:13;84.65;;;77.38;;
9801;SDS011;4940;50.900;4.672;2023-05-10T02:34:41;91.53;;;83.72;;
9801;SDS011;4940;50.900;4.672;2023-05-10T02:37:18;80.15;;;72.35;;
9801;SDS011;4940;50.900;4.672;2023-05-10T02:39:47;81.50;;;73.85;;
9801;SDS011;4940;50.900;4.672;2023-05-10T02:42:16;77.32;;;69.75;;
9801;SDS011;4940;50.900;4.672;2023-05-10T02:44:47;69.50;;;62.78;;
9801;SDS011;4940;50.900;4.672;2023-05-10T02:47:24;69.97;;;63.17;;
9801;SDS011;4940;50.900;4.672;2023-05-10T02:49:56;73.22;;;66.45;;
9801;SDS011;4940;50.900;4.672;2023-05-10T02:52:27;77.68;;;70.47;;
9801;SDS011;4940;50.900;4.672;2023-05-10T02:54:58;75.47;;;68.75;;
9801;SDS011;4940;50.900;4.672;2023-05-10T02:57:31;87.03;;;79.57;;
9801;SDS011;4940;50.900;4.672;2023-05-10T03:00:01;80.95;;;74.28;;
9801;SDS011;4940;50.900;4.672;2023-05-10T03:02:28;86.43;;;78.57;;
9801;SDS011;4940;50.900;4.672;2023-05-10T03:04:58;86.53;;;79.28;;
9801;SDS011;4940;50.900;4.672;2023-05-10T03:07:28;82.28;;;75.40;;
9801;SDS011;4940;50.900;4.672;2023-05-10T03:09:55;63.55;;;57.65;;
9801;SDS011;4940;50.900;4.672;2023-05-10T03:12:27;72.20;;;65.25;;
9801;SDS011;4940;50.900;4.672;2023-05-10T03:15:07;69.05;;;62.72;;
9801;SDS011;4940;50.900;4.672;2023-05-10T03:17:41;66.00;;;59.72;;
9801;SDS011;4940;50.900;4.672;2023-05-10T03:20:20;62.25;;;56.47;;
9801;SDS011;4940;50.900;4.672;2023-05-10T03:22:55;60.17;;;54.05;;
9801;SDS011;4940;50.900;4.672;2023-05-10T03:25:26;64.75;;;58.55;;
9801;SDS011;4940;50.900;4.672;2023-05-10T03:27:56;71.03;;;64.78;;
9801;SDS011;4940;50.900;4.672;2023-05-10T03:30:24;76.07;;;68.97;;
9801;SDS011;4940;50.900;4.672;2023-05-10T03:32:51;83.95;;;76.72;;
9801;SDS011;4940;50.900;4.672;2023-05-10T03:35:19;78.80;;;71.63;;
9801;SDS011;4940;50.900;4.672;2023-05-10T03:37:46;71.20;;;65.22;;
9801;SDS011;4940;50.900;4.672;2023-05-10T03:40:18;82.10;;;75.25;;
9801;SDS011;4940;50.900;4.672;2023-05-10T03:42:49;79.20;;;72.45;;
9801;SDS011;4940;50.900;4.672;2023-05-10T03:45:30;85.15;;;77.82;;
9801;SDS011;4940;50.900;4.672;2023-05-10T03:47:58;77.80;;;70.90;;
9801;SDS011;4940;50.900;4.672;2023-05-10T03:50:26;87.60;;;80.50;;
9801;SDS011;4940;50.900;4.672;2023-05-10T03:52:53;98.28;;;90.07;;
9801;SDS011;4940;50.900;4.672;2023-05-10T03:55:22;85.18;;;77.57;;
9801;SDS011;4940;50.900;4.672;2023-05-10T03:57:50;86.00;;;77.90;;
9801;SDS011;4940;50.900;4.672;2023-05-10T04:00:19;99.53;;;91.30;;
9801;SDS011;4940;50.900;4.672;2023-05-10T04:02:46;95.22;;;86.70;;
9801;SDS011;4940;50.900;4.672;2023-05-10T04:05:14;86.93;;;77.88;;
9801;SDS011;4940;50.900;4.672;2023-05-10T04:07:41;92.63;;;84.15;;
9801;SDS011;4940;50.900;4.672;2023-05-10T04:10:09;90.40;;;82.05;;
9801;SDS011;4940;50.900;4.672;2023-05-10T04:12:38;87.35;;;78.63;;
9801;SDS011;4940;50.900;4.672;2023-05-10T04:15:05;93.03;;;84.07;;
9801;SDS011;4940;50.900;4.672;2023-05-10T04:17:33;96.72;;;87.75;;
9801;SDS011;4940;50.900;4.672;2023-05-10T04:20:01;101.60;;;92.82;;
9801;SDS011;4940;50.900;4.672;2023-05-10T04:22:28;113.82;;;104.15;;
9801;SDS011;4940;50.900;4.672;2023-05-10T04:24:56;115.45;;;105.30;;
9801;SDS011;4940;50.900;4.672;2023-05-10T04:27:24;127.38;;;115.70;;
9801;SDS011;4940;50.900;4.672;2023-05-10T04:29:52;118.88;;;107.88;;
9801;SDS011;4940;50.900;4.672;2023-05-10T04:32:20;120.47;;;108.97;;
9801;SDS011;4940;50.900;4.672;2023-05-10T04:34:47;113.00;;;102.40;;
9801;SDS011;4940;50.900;4.672;2023-05-10T04:37:16;106.15;;;94.85;;
9801;SDS011;4940;50.900;4.672;2023-05-10T04:39:43;102.82;;;92.70;;
9801;SDS011;4940;50.900;4.672;2023-05-10T04:42:11;93.28;;;83.18;;
9801;SDS011;4940;50.900;4.672;2023-05-10T04:44:40;91.50;;;76.05;;
9801;SDS011;4940;50.900;4.672;2023-05-10T04:47:09;83.50;;;69.90;;
9801;SDS011;4940;50.900;4.672;2023-05-10T04:49:38;80.40;;;71.03;;
9801;SDS011;4940;50.900;4.672;2023-05-10T04:52:06;88.38;;;69.85;;
9801;SDS011;4940;50.900;4.672;2023-05-10T04:54:35;81.65;;;71.63;;
9801;SDS011;4940;50.900;4.672;2023-05-10T04:57:11;91.38;;;79.78;;
9801;SDS011;4940;50.900;4.672;2023-05-10T04:59:39;80.00;;;68.75;;
9801;SDS011;4940;50.900;4.672;2023-05-10T05:02:06;89.45;;;79.97;;
9801;SDS011;4940;50.900;4.672;2023-05-10T05:04:39;84.75;;;76.00;;
9801;SDS011;4940;50.900;4.672;2023-05-10T05:07:07;92.35;;;82.57;;
9801;SDS011;4940;50.900;4.672;2023-05-10T05:09:35;96.53;;;77.93;;
9801;SDS011;4940;50.900;4.672;2023-05-10T05:12:04;88.90;;;76.15;;
9801;SDS011;4940;50.900;4.672;2023-05-10T05:14:31;90.60;;;78.57;;
9801;SDS011;4940;50.900;4.672;2023-05-10T05:17:02;83.10;;;74.55;;
9801;SDS011;4940;50.900;4.672;2023-05-10T05:19:30;82.85;;;72.55;;
9801;SDS011;4940;50.900;4.672;2023-05-10T05:21:59;89.97;;;80.50;;
9801;SDS011;4940;50.900;4.672;2023-05-10T05:24:27;90.20;;;81.25;;
9801;SDS011;4940;50.900;4.672;2023-05-10T05:26:55;94.82;;;79.05;;
9801;SDS011;4940;50.900;4.672;2023-05-10T05:29:23;101.70;;;82.10;;
9801;SDS011;4940;50.900;4.672;2023-05-10T05:31:53;97.25;;;87.25;;
9801;SDS011;4940;50.900;4.672;2023-05-10T05:34:21;89.05;;;79.22;;
9801;SDS011;4940;50.900;4.672;2023-05-10T05:36:49;91.32;;;82.20;;
9801;SDS011;4940;50.900;4.672;2023-05-10T05:39:18;88.78;;;76.47;;
9801;SDS011;4940;50.900;4.672;2023-05-10T05:41:45;87.15;;;72.88;;
9801;SDS011;4940;50.900;4.672;2023-05-10T05:44:13;88.18;;;70.97;;
9801;SDS011;4940;50.900;4.672;2023-05-10T05:46:43;85.50;;;67.70;;
9801;SDS011;4940;50.900;4.672;2023-05-10T05:49:11;83.93;;;68.22;;
9801;SDS011;4940;50.900;4.672;2023-05-10T05:52:05;87.57;;;65.97;;
9801;SDS011;4940;50.900;4.672;2023-05-10T05:54:37;87.75;;;66.97;;
9801;SDS011;4940;50.900;4.672;2023-05-10T05:57:12;80.35;;;68.82;;
9801;SDS011;4940;50.900;4.672;2023-05-10T05:59:45;88.65;;;72.13;;
9801;SDS011;4940;50.900;4.672;2023-05-10T06:02:14;84.25;;;69.55;;
9801;SDS011;4940;50.900;4.672;2023-05-10T06:04:43;93.95;;;78.80;;
9801;SDS011;4940;50.900;4.672;2023-05-10T06:07:11;97.15;;;82.93;;
9801;SDS011;4940;50.900;4.672;2023-05-10T06:09:43;93.53;;;80.38;;
9801;SDS011;4940;50.900;4.672;2023-05-10T06:12:15;86.72;;;76.18;;
9801;SDS011;4940;50.900;4.672;2023-05-10T06:14:45;89.60;;;77.07;;
9801;SDS011;4940;50.900;4.672;2023-05-10T06:17:16;87.10;;;78.20;;
9801;SDS011;4940;50.900;4.672;2023-05-10T06:19:43;87.38;;;75.68;;
9801;SDS011;4940;50.900;4.672;2023-05-10T06:22:11;90.13;;;80.00;;
9801;SDS011;4940;50.900;4.672;2023-05-10T06:24:40;90.13;;;79.10;;
9801;SDS011;4940;50.900;4.672;2023-05-10T06:27:08;87.28;;;77.03;;
9801;SDS011;4940;50.900;4.672;2023-05-10T06:29:36;83.40;;;74.30;;
9801;SDS011;4940;50.900;4.672;2023-05-10T06:32:03;83.47;;;72.82;;
9801;SDS011;4940;50.900;4.672;2023-05-10T06:34:31;86.05;;;68.50;;
9801;SDS011;4940;50.900;4.672;2023-05-10T06:36:58;82.07;;;71.40;;
9801;SDS011;4940;50.900;4.672;2023-05-10T06:39:26;95.10;;;74.18;;
9801;SDS011;4940;50.900;4.672;2023-05-10T06:41:55;92.28;;;82.45;;
9801;SDS011;4940;50.900;4.672;2023-05-10T06:44:22;83.38;;;74.22;;
9801;SDS011;4940;50.900;4.672;2023-05-10T06:46:49;88.25;;;78.15;;
9801;SDS011;4940;50.900;4.672;2023-05-10T06:49:18;85.93;;;75.15;;
9801;SDS011;4940;50.900;4.672;2023-05-10T06:51:46;85.18;;;76.18;;
9801;SDS011;4940;50.900;4.672;2023-05-10T06:54:13;82.03;;;73.10;;
9801;SDS011;4940;50.900;4.672;2023-05-10T06:56:41;85.60;;;76.45;;
9801;SDS011;4940;50.900;4.672;2023-05-10T06:59:09;90.20;;;80.70;;
9801;SDS011;4940;50.900;4.672;2023-05-10T07:01:38;99.25;;;88.95;;
9801;SDS011;4940;50.900;4.672;2023-05-10T07:04:06;97.88;;;88.15;;
9801;SDS011;4940;50.900;4.672;2023-05-10T07:06:33;101.15;;;90.97;;
9801;SDS011;4940;50.900;4.672;2023-05-10T07:09:01;98.78;;;89.13;;
9801;SDS011;4940;50.900;4.672;2023-05-10T07:11:28;86.40;;;77.82;;
9801;SDS011;4940;50.900;4.672;2023-05-10T07:13:56;73.82;;;66.45;;
9801;SDS011;4940;50.900;4.672;2023-05-10T07:16:25;77.05;;;69.97;;
9801;SDS011;4940;50.900;4.672;2023-05-10T07:18:52;65.93;;;59.55;;
9801;SDS011;4940;50.900;4.672;2023-05-10T07:21:19;67.60;;;61.53;;
9801;SDS011;4940;50.900;4.672;2023-05-10T07:23:49;70.45;;;63.92;;
9801;SDS011;4940;50.900;4.672;2023-05-10T07:26:16;74.18;;;67.68;;
9801;SDS011;4940;50.900;4.672;2023-05-10T07:28:44;78.40;;;71.50;;
9801;SDS011;4940;50.900;4.672;2023-05-10T07:31:12;73.03;;;66.72;;
9801;SDS011;4940;50.900;4.672;2023-05-10T07:33:40;77.45;;;70.65;;
9801;SDS011;4940;50.900;4.672;2023-05-10T07:36:08;82.40;;;75.68;;
9801;SDS011;4940;50.900;4.672;2023-05-10T07:38:35;73.65;;;67.20;;
9801;SDS011;4940;50.900;4.672;2023-05-10T07:41:03;68.28;;;62.03;;
9801;SDS011;4940;50.900;4.672;2023-05-10T07:43:30;65.43;;;59.53;;
9801;SDS011;4940;50.900;4.672;2023-05-10T07:45:58;64.18;;;58.58;;
9801;SDS011;4940;50.900;4.672;2023-05-10T07:48:25;59.70;;;54.40;;
9801;SDS011;4940;50.900;4.672;2023-05-10T07:50:54;68.47;;;62.72;;
9801;SDS011;4940;50.900;4.672;2023-05-10T07:53:22;60.88;;;54.97;;
9801;SDS011;4940;50.900;4.672;2023-05-10T07:55:52;68.78;;;62.85;;
9801;SDS011;4940;50.900;4.672;2023-05-10T07:58:23;60.47;;;54.63;;
9801;SDS011;4940;50.900;4.672;2023-05-10T08:00:51;61.13;;;55.47;;
9801;SDS011;4940;50.900;4.672;2023-05-10T08:03:18;59.38;;;53.88;;
9801;SDS011;4940;50.900;4.672;2023-05-10T08:05:45;60.95;;;55.13;;
9801;SDS011;4940;50.900;4.672;2023-05-10T08:08:14;62.92;;;56.90;;
9801;SDS011;4940;50.900;4.672;2023-05-10T08:10:42;61.22;;;55.25;;
9801;SDS011;4940;50.900;4.672;2023-05-10T08:13:10;64.47;;;58.47;;
9801;SDS011;4940;50.900;4.672;2023-05-10T08:15:37;61.88;;;55.97;;
9801;SDS011;4940;50.900;4.672;2023-05-10T08:18:05;61.22;;;55.42;;
9801;SDS011;4940;50.900;4.672;2023-05-10T08:20:32;63.85;;;57.65;;
9801;SDS011;4940;50.900;4.672;2023-05-10T08:23:00;66.15;;;60.28;;
9801;SDS011;4940;50.900;4.672;2023-05-10T08:25:29;67.18;;;61.03;;
9801;SDS011;4940;50.900;4.672;2023-05-10T08:27:56;71.03;;;64.60;;
9801;SDS011;4940;50.900;4.672;2023-05-10T08:30:23;67.93;;;61.58;;
9801;SDS011;4940;50.900;4.672;2023-05-10T08:32:51;67.90;;;61.75;;
9801;SDS011;4940;50.900;4.672;2023-05-10T08:35:18;65.40;;;59.17;;
9801;SDS011;4940;50.900;4.672;2023-05-10T08:37:46;65.88;;;60.03;;
9801;SDS011;4940;50.900;4.672;2023-05-10T08:40:13;64.78;;;58.50;;
9801;SDS011;4940;50.900;4.672;2023-05-10T08:42:43;62.35;;;56.83;;
9801;SDS011;4940;50.900;4.672;2023-05-10T08:45:17;63.97;;;57.80;;
9801;SDS011;4940;50.900;4.672;2023-05-10T08:47:46;61.17;;;55.83;;
9801;SDS011;4940;50.900;4.672;2023-05-10T08:50:13;62.00;;;56.38;;
9801;SDS011;4940;50.900;4.672;2023-05-10T08:52:43;56.88;;;51.67;;
9801;SDS011;4940;50.900;4.672;2023-05-10T08:55:14;58.60;;;53.17;;
9801;SDS011;4940;50.900;4.672;2023-05-10T08:57:44;55.78;;;50.88;;
9801;SDS011;4940;50.900;4.672;2023-05-10T09:00:12;56.97;;;51.90;;
9801;SDS011;4940;50.900;4.672;2023-05-10T09:02:41;56.63;;;51.72;;
9801;SDS011;4940;50.900;4.672;2023-05-10T09:05:10;55.60;;;50.70;;
9801;SDS011;4940;50.900;4.672;2023-05-10T09:07:41;56.58;;;51.55;;
9801;SDS011;4940;50.900;4.672;2023-05-10T09:10:08;56.13;;;51.33;;
9801;SDS011;4940;50.900;4.672;2023-05-10T09:12:37;57.63;;;52.45;;
9801;SDS011;4940;50.900;4.672;2023-05-10T09:15:06;54.40;;;49.63;;
9801;SDS011;4940;50.900;4.672;2023-05-10T09:17:34;50.42;;;45.78;;
9801;SDS011;4940;50.900;4.672;2023-05-10T09:20:01;53.45;;;48.42;;
9801;SDS011;4940;50.900;4.672;2023-05-10T09:22:30;52.95;;;48.22;;
9801;SDS011;4940;50.900;4.672;2023-05-10T09:25:04;56.35;;;51.50;;
9801;SDS011;4940;50.900;4.672;2023-05-10T09:27:32;51.28;;;46.47;;
9801;SDS011;4940;50.900;4.672;2023-05-10T09:29:59;51.55;;;46.92;;
9801;SDS011;4940;50.900;4.672;2023-05-10T09:32:37;53.78;;;48.75;;
9801;SDS011;4940;50.900;4.672;2023-05-10T09:35:08;51.00;;;46.70;;
9801;SDS011;4940;50.900;4.672;2023-05-10T09:37:36;53.90;;;49.42;;
9801;SDS011;4940;50.900;4.672;2023-05-10T09:40:07;50.28;;;45.83;;
9801;SDS011;4940;50.900;4.672;2023-05-10T09:42:37;49.22;;;45.13;;
9801;SDS011;4940;50.900;4.672;2023-05-10T09:45:05;48.30;;;43.90;;
9801;SDS011;4940;50.900;4.672;2023-05-10T09:47:34;49.92;;;45.63;;
9801;SDS011;4940;50.900;4.672;2023-05-10T09:50:03;51.22;;;46.72;;
9801;SDS011;4940;50.900;4.672;2023-05-10T09:52:31;49.75;;;45.58;;
9801;SDS011;4940;50.900;4.672;2023-05-10T09:55:13;49.03;;;45.17;;
9801;SDS011;4940;50.900;4.672;2023-05-10T09:57:40;47.45;;;43.80;;
9801;SDS011;4940;50.900;4.672;2023-05-10T10:00:08;45.65;;;42.15;;
9801;SDS011;4940;50.900;4.672;2023-05-10T10:02:36;44.05;;;40.85;;
9801;SDS011;4940;50.900;4.672;2023-05-10T10:05:05;41.00;;;38.20;;
9801;SDS011;4940;50.900;4.672;2023-05-10T10:07:33;39.10;;;36.40;;
9801;SDS011;4940;50.900;4.672;2023-05-10T10:10:02;38.33;;;35.75;;
9801;SDS011;4940;50.900;4.672;2023-05-10T10:12:42;37.40;;;34.92;;
9801;SDS011;4940;50.900;4.672;2023-05-10T10:15:11;36.53;;;34.30;;
9801;SDS011;4940;50.900;4.672;2023-05-10T10:17:41;34.28;;;32.17;;
9801;SDS011;4940;50.900;4.672;2023-05-10T10:20:27;37.70;;;35.28;;
9801;SDS011;4940;50.900;4.672;2023-05-10T10:23:04;35.47;;;33.13;;
9801;SDS011;4940;50.900;4.672;2023-05-10T10:25:38;35.92;;;33.83;;
9801;SDS011;4940;50.900;4.672;2023-05-10T10:28:26;31.05;;;29.25;;
9801;SDS011;4940;50.900;4.672;2023-05-10T10:30:59;33.33;;;31.42;;
9801;SDS011;4940;50.900;4.672;2023-05-10T10:33:54;32.47;;;30.58;;
9801;SDS011;4940;50.900;4.672;2023-05-10T10:39:28;30.70;;;29.00;;
9801;SDS011;4940;50.900;4.672;2023-05-10T10:42:10;25.33;;;23.73;;
9801;SDS011;4940;50.900;4.672;2023-05-10T10:47:50;16.38;;;15.43;;
9801;SDS011;4940;50.900;4.672;2023-05-10T10:50:21;15.82;;;14.98;;
9801;SDS011;4940;50.900;4.672;2023-05-10T10:52:57;17.33;;;16.42;;
9801;SDS011;4940;50.900;4.672;2023-05-10T10:55:46;15.68;;;14.80;;
9801;SDS011;4940;50.900;4.672;2023-05-10T10:58:30;17.05;;;16.05;;
9801;SDS011;4940;50.900;4.672;2023-05-10T11:01:11;24.02;;;22.73;;
9801;SDS011;4940;50.900;4.672;2023-05-10T11:03:40;19.63;;;18.63;;
9801;SDS011;4940;50.900;4.672;2023-05-10T11:06:07;19.67;;;18.60;;
9801;SDS011;4940;50.900;4.672;2023-05-10T11:08:41;17.80;;;16.77;;
9801;SDS011;4940;50.900;4.672;2023-05-10T11:11:15;16.92;;;16.02;;
9801;SDS011;4940;50.900;4.672;2023-05-10T11:13:43;12.15;;;11.52;;
9801;SDS011;4940;50.900;4.672;2023-05-10T11:16:15;9.15;;;8.57;;
9801;SDS011;4940;50.900;4.672;2023-05-10T11:21:47;5.40;;;5.10;;
9801;SDS011;4940;50.900;4.672;2023-05-10T11:24:17;4.60;;;4.40;;
9801;SDS011;4940;50.900;4.672;2023-05-10T11:26:50;4.80;;;4.50;;
9801;SDS011;4940;50.900;4.672;2023-05-10T11:29:24;4.75;;;4.45;;
9801;SDS011;4940;50.900;4.672;2023-05-10T11:31:51;4.53;;;4.32;;
9801;SDS011;4940;50.900;4.672;2023-05-10T11:34:22;4.40;;;4.20;;
9801;SDS011;4940;50.900;4.672;2023-05-10T11:36:51;5.10;;;4.80;;
9801;SDS011;4940;50.900;4.672;2023-05-10T11:39:20;4.65;;;4.38;;
9801;SDS011;4940;50.900;4.672;2023-05-10T11:41:48;5.05;;;4.70;;
9801;SDS011;4940;50.900;4.672;2023-05-10T11:44:17;4.00;;;3.70;;
9801;SDS011;4940;50.900;4.672;2023-05-10T11:46:45;4.88;;;4.57;;
9801;SDS011;4940;50.900;4.672;2023-05-10T11:49:13;4.57;;;4.28;;
9801;SDS011;4940;50.900;4.672;2023-05-10T11:51:40;6.32;;;5.93;;
9801;SDS011;4940;50.900;4.672;2023-05-10T11:54:11;7.35;;;6.80;;
9801;SDS011;4940;50.900;4.672;2023-05-10T11:56:39;5.03;;;4.72;;
9801;SDS011;4940;50.900;4.672;2023-05-10T11:59:07;5.78;;;5.47;;
9801;SDS011;4940;50.900;4.672;2023-05-10T12:01:39;6.57;;;6.18;;
9801;SDS011;4940;50.900;4.672;2023-05-10T12:04:10;7.88;;;7.38;;
9801;SDS011;4940;50.900;4.672;2023-05-10T12:06:48;7.43;;;7.03;;
9801;SDS011;4940;50.900;4.672;2023-05-10T12:12:36;8.75;;;8.10;;
9801;SDS011;4940;50.900;4.672;2023-05-10T12:15:05;15.10;;;14.30;;
9801;SDS011;4940;50.900;4.672;2023-05-10T12:17:33;16.17;;;15.18;;
9801;SDS011;4940;50.900;4.672;2023-05-10T12:20:19;11.82;;;11.05;;
9801;SDS011;4940;50.900;4.672;2023-05-10T12:22:52;15.40;;;14.45;;
9801;SDS011;4940;50.900;4.672;2023-05-10T12:25:21;14.68;;;13.88;;
9801;SDS011;4940;50.900;4.672;2023-05-10T12:27:51;12.05;;;11.25;;
9801;SDS011;4940;50.900;4.672;2023-05-10T12:30:23;13.65;;;12.85;;
9801;SDS011;4940;50.900;4.672;2023-05-10T12:32:51;18.70;;;17.70;;
9801;SDS011;4940;50.900;4.672;2023-05-10T12:35:19;12.02;;;11.30;;
9801;SDS011;4940;50.900;4.672;2023-05-10T12:37:49;7.93;;;7.43;;
9801;SDS011;4940;50.900;4.672;2023-05-10T12:40:17;6.63;;;6.10;;
9801;SDS011;4940;50.900;4.672;2023-05-10T12:42:45;5.40;;;4.88;;
9801;SDS011;4940;50.900;4.672;2023-05-10T12:45:15;4.75;;;4.45;;
9801;SDS011;4940;50.900;4.672;2023-05-10T12:47:44;4.00;;;3.70;;
9801;SDS011;4940;50.900;4.672;2023-05-10T12:50:11;3.70;;;3.40;;
9801;SDS011;4940;50.900;4.672;2023-05-10T12:52:39;3.25;;;3.03;;
9801;SDS011;4940;50.900;4.672;2023-05-10T12:55:07;2.80;;;2.60;;
9801;SDS011;4940;50.900;4.672;2023-05-10T12:57:35;3.00;;;2.70;;
9801;SDS011;4940;50.900;4.672;2023-05-10T13:00:02;2.65;;;2.45;;
9801;SDS011;4940;50.900;4.672;2023-05-10T13:02:32;2.75;;;2.55;;
9801;SDS011;4940;50.900;4.672;2023-05-10T13:04:59;2.45;;;2.25;;
9801;SDS011;4940;50.900;4.672;2023-05-10T13:07:27;2.22;;;2.00;;
9801;SDS011;4940;50.900;4.672;2023-05-10T13:09:55;2.15;;;1.95;;
9801;SDS011;4940;50.900;4.672;2023-05-10T13:12:23;3.05;;;2.28;;
9801;SDS011;4940;50.900;4.672;2023-05-10T13:14:56;3.53;;;2.10;;
9801;SDS011;4940;50.900;4.672;2023-05-10T13:17:25;2.28;;;2.08;;
9801;SDS011;4940;50.900;4.672;2023-05-10T13:19:59;2.15;;;1.80;;
9801;SDS011;4940;50.900;4.672;2023-05-10T13:22:26;2.40;;;1.90;;
9801;SDS011;4940;50.900;4.672;2023-05-10T13:24:55;2.05;;;1.88;;
9801;SDS011;4940;50.900;4.672;2023-05-10T13:27:23;2.22;;;1.80;;
9801;SDS011;4940;50.900;4.672;2023-05-10T13:29:51;2.53;;;2.03;;
9801;SDS011;4940;50.900;4.672;2023-05-10T13:32:18;2.70;;;2.13;;
9801;SDS011;4940;50.900;4.672;2023-05-10T13:34:46;2.30;;;2.10;;
9801;SDS011;4940;50.900;4.672;2023-05-10T13:37:16;2.53;;;1.90;;
9801;SDS011;4940;50.900;4.672;2023-05-10T13:39:49;2.38;;;2.10;;
9801;SDS011;4940;50.900;4.672;2023-05-10T13:42:21;2.78;;;2.42;;
9801;SDS011;4940;50.900;4.672;2023-05-10T13:44:48;2.58;;;2.15;;
9801;SDS011;4940;50.900;4.672;2023-05-10T13:47:16;3.42;;;1.80;;
9801;SDS011;4940;50.900;4.672;2023-05-10T13:49:43;2.70;;;2.22;;
9801;SDS011;4940;50.900;4.672;2023-05-10T13:52:11;2.83;;;2.35;;
9801;SDS011;4940;50.900;4.672;2023-05-10T13:54:40;2.45;;;2.15;;
9801;SDS011;4940;50.900;4.672;2023-05-10T13:57:08;2.60;;;2.00;;
9801;SDS011;4940;50.900;4.672;2023-05-10T13:59:38;2.40;;;2.20;;
9801;SDS011;4940;50.900;4.672;2023-05-10T14:02:05;2.00;;;1.70;;
9801;SDS011;4940;50.900;4.672;2023-05-10T14:04:32;2.30;;;2.10;;
9801;SDS011;4940;50.900;4.672;2023-05-10T14:07:00;2.05;;;1.85;;
9801;SDS011;4940;50.900;4.672;2023-05-10T14:09:28;2.78;;;2.35;;
9801;SDS011;4940;50.900;4.672;2023-05-10T14:11:57;2.60;;;2.40;;
9801;SDS011;4940;50.900;4.672;2023-05-10T14:14:25;5.18;;;2.42;;
9801;SDS011;4940;50.900;4.672;2023-05-10T14:16:54;2.72;;;2.45;;
9801;SDS011;4940;50.900;4.672;2023-05-10T14:19:22;2.45;;;2.25;;
9801;SDS011;4940;50.900;4.672;2023-05-10T14:21:50;4.68;;;2.25;;
9801;SDS011;4940;50.900;4.672;2023-05-10T14:24:17;2.47;;;2.20;;
9801;SDS011;4940;50.900;4.672;2023-05-10T14:26:45;2.83;;;2.17;;
9801;SDS011;4940;50.900;4.672;2023-05-10T14:29:14;2.92;;;2.72;;
9801;SDS011;4940;50.900;4.672;2023-05-10T14:31:50;3.20;;;2.60;;
9801;SDS011;4940;50.900;4.672;2023-05-10T14:34:22;3.10;;;2.08;;
9801;SDS011;4940;50.900;4.672;2023-05-10T14:36:57;2.95;;;2.65;;
9801;SDS011;4940;50.900;4.672;2023-05-10T14:39:27;3.50;;;3.00;;
9801;SDS011;4940;50.900;4.672;2023-05-10T14:42:09;2.17;;;1.98;;
9801;SDS011;4940;50.900;4.672;2023-05-10T14:44:44;2.67;;;2.15;;
9801;SDS011;4940;50.900;4.672;2023-05-10T14:47:16;3.47;;;2.42;;
9801;SDS011;4940;50.900;4.672;2023-05-10T14:49:44;3.10;;;2.25;;
9801;SDS011;4940;50.900;4.672;2023-05-10T14:52:19;3.17;;;2.22;;
9801;SDS011;4940;50.900;4.672;2023-05-10T14:54:54;3.15;;;2.20;;
9801;SDS011;4940;50.900;4.672;2023-05-10T14:57:28;2.55;;;2.35;;
9801;SDS011;4940;50.900;4.672;2023-05-10T15:00:20;2.95;;;2.50;;
9801;SDS011;4940;50.900;4.672;2023-05-10T15:03:09;3.22;;;2.33;;
9801;SDS011;4940;50.900;4.672;2023-05-10T15:05:36;2.85;;;2.55;;
9801;SDS011;4940;50.900;4.672;2023-05-10T15:08:10;3.45;;;2.28;;
9801;SDS011;4940;50.900;4.672;2023-05-10T15:10:50;3.83;;;2.55;;
9801;SDS011;4940;50.900;4.672;2023-05-10T15:13:27;4.43;;;2.60;;
9801;SDS011;4940;50.900;4.672;2023-05-10T15:15:59;3.67;;;3.08;;
9801;SDS011;4940;50.900;4.672;2023-05-10T15:18:32;4.80;;;3.63;;
9801;SDS011;4940;50.900;4.672;2023-05-10T15:21:06;5.85;;;4.28;;
9801;SDS011;4940;50.900;4.672;2023-05-10T15:23:40;6.07;;;4.07;;
9801;SDS011;4940;50.900;4.672;2023-05-10T15:26:13;6.93;;;4.70;;